createdAt,value
2022-12-20T00:05:17.825Z,11.57
2022-12-20T00:08:45.466Z,13.18
2022-12-20T00:22:28.320Z,14.00
2022-12-20T00:25:18.319Z,13.35
2022-12-20T00:30:56.715Z,10.82
2022-12-20T00:33:04.870Z,10.50
2022-12-20T00:40:40.941Z,13.70
2022-12-20T00:43:41.363Z,8.00
2022-12-20T00:47:12.544Z,7.90
2022-12-20T00:51:17.192Z,10.63
2022-12-20T00:54:22.199Z,7.13
2022-12-20T00:57:23.982Z,8.52
2022-12-20T01:01:04.966Z,5.70
2022-12-20T01:04:56.939Z,5.35
2022-12-20T01:23:23.680Z,10.98
2022-12-20T01:28:02.211Z,11.02
2022-12-20T01:45:41.484Z,8.10
2022-12-20T01:55:11.193Z,10.05
2022-12-20T02:03:12.717Z,13.93
2022-12-20T02:19:00.641Z,9.35
2022-12-20T02:22:57.058Z,10.68
2022-12-20T02:27:28.651Z,5.07
2022-12-20T02:30:25.493Z,7.85
2022-12-20T02:37:08.501Z,7.25
2022-12-20T02:40:03.277Z,6.85
2022-12-20T02:43:25.261Z,9.07
2022-12-20T02:46:23.543Z,9.90
2022-12-20T02:49:44.036Z,6.10
2022-12-20T02:52:57.643Z,5.55
2022-12-20T02:56:27.303Z,6.28
2022-12-20T03:08:33.808Z,11.43
2022-12-20T03:16:50.736Z,15.57
2022-12-20T03:19:37.224Z,9.05
2022-12-20T03:22:23.501Z,10.27
2022-12-20T03:25:09.508Z,5.72
2022-12-20T03:27:55.721Z,10.25
2022-12-20T03:30:43.941Z,11.32
2022-12-20T03:33:30.305Z,13.63
2022-12-20T03:36:23.434Z,10.75
2022-12-20T03:39:13.458Z,10.85
2022-12-20T03:42:00.035Z,17.48
2022-12-20T03:44:46.025Z,10.50
2022-12-20T03:47:32.723Z,12.30
2022-12-20T03:50:18.997Z,14.48
2022-12-20T03:53:05.132Z,13.48
2022-12-20T03:55:52.778Z,10.55
2022-12-20T03:58:39.352Z,10.45
2022-12-20T04:01:28.532Z,12.60
2022-12-20T04:04:16.156Z,12.32
2022-12-20T04:07:03.456Z,8.57
2022-12-20T04:09:54.468Z,8.32
2022-12-20T04:12:40.638Z,15.50
2022-12-20T04:15:32.280Z,12.10
2022-12-20T04:18:20.019Z,16.70
2022-12-20T04:21:07.247Z,16.30
2022-12-20T04:23:57.234Z,16.60
2022-12-20T04:26:49.390Z,14.13
2022-12-20T04:29:36.817Z,15.55
2022-12-20T04:32:25.018Z,15.57
2022-12-20T04:35:13.356Z,10.48
2022-12-20T04:38:01.692Z,12.18
2022-12-20T04:40:55.681Z,10.65
2022-12-20T04:43:43.190Z,13.18
2022-12-20T04:46:30.763Z,12.43
2022-12-20T04:49:19.229Z,19.70
2022-12-20T04:52:24.278Z,17.40
2022-12-20T04:55:10.662Z,14.43
2022-12-20T04:58:00.663Z,10.88
2022-12-20T05:00:52.240Z,21.55
2022-12-20T05:03:45.425Z,19.10
2022-12-20T05:06:33.409Z,14.77
2022-12-20T05:09:19.776Z,22.58
2022-12-20T05:12:07.163Z,18.00
2022-12-20T05:14:53.657Z,12.55
2022-12-20T05:17:41.615Z,22.75
2022-12-20T05:20:30.171Z,18.52
2022-12-20T05:23:39.437Z,16.08
2022-12-20T05:26:36.501Z,12.15
2022-12-20T05:29:23.442Z,12.50
2022-12-20T05:32:09.765Z,17.35
2022-12-20T05:34:59.361Z,10.15
2022-12-20T05:37:45.449Z,19.90
2022-12-20T05:40:36.596Z,13.77
2022-12-20T05:43:23.033Z,14.30
2022-12-20T05:46:10.758Z,12.63
2022-12-20T05:49:09.095Z,12.20
2022-12-20T05:51:55.384Z,14.75
2022-12-20T05:54:44.172Z,16.35
2022-12-20T05:57:33.565Z,12.02
2022-12-20T06:00:19.673Z,9.88
2022-12-20T06:03:10.114Z,17.58
2022-12-20T06:05:57.499Z,11.02
2022-12-20T06:08:48.028Z,13.45
2022-12-20T06:11:41.668Z,16.05
2022-12-20T06:14:30.773Z,10.27
2022-12-20T06:17:17.069Z,10.30
2022-12-20T06:20:04.124Z,11.75
2022-12-20T06:23:05.326Z,18.23
2022-12-20T06:26:25.013Z,12.40
2022-12-20T06:29:18.016Z,10.65
2022-12-20T06:32:11.232Z,10.02
2022-12-20T06:34:58.496Z,14.43
2022-12-20T06:37:44.775Z,12.05
2022-12-20T06:40:33.949Z,13.18
2022-12-20T06:43:28.851Z,13.40
2022-12-20T06:46:18.277Z,14.25
2022-12-20T06:49:05.457Z,12.27
2022-12-20T06:51:52.259Z,14.70
2022-12-20T06:54:45.270Z,14.93
2022-12-20T06:57:36.065Z,14.88
2022-12-20T07:00:27.528Z,13.45
2022-12-20T07:03:14.269Z,16.63
2022-12-20T07:06:00.448Z,10.02
2022-12-20T07:08:46.405Z,13.45
2022-12-20T07:11:35.576Z,8.52
2022-12-20T07:14:26.108Z,11.07
2022-12-20T07:17:12.378Z,14.15
2022-12-20T07:19:58.400Z,13.15
2022-12-20T07:23:32.137Z,14.82
2022-12-20T07:26:18.416Z,7.85
2022-12-20T07:29:04.468Z,18.33
2022-12-20T07:31:50.503Z,15.98
2022-12-20T07:34:37.661Z,8.13
2022-12-20T07:37:24.229Z,4.68
2022-12-20T07:40:14.834Z,1.40
2022-12-20T07:43:00.959Z,1.23
2022-12-20T07:45:47.607Z,0.32
2022-12-20T07:48:34.330Z,0.22
2022-12-20T07:51:41.695Z,0.60
2022-12-20T07:54:31.366Z,1.38
2022-12-20T07:57:24.326Z,0.68
2022-12-20T08:00:11.014Z,0.95
2022-12-20T08:03:10.570Z,0.65
2022-12-20T08:06:00.578Z,0.60
2022-12-20T08:08:54.474Z,1.10
2022-12-20T08:11:43.426Z,0.90
2022-12-20T08:14:29.944Z,0.82
2022-12-20T08:17:15.869Z,1.75
2022-12-20T08:20:01.855Z,0.98
2022-12-20T08:22:48.271Z,2.53
2022-12-20T08:25:41.197Z,0.60
2022-12-20T08:28:27.994Z,0.73
2022-12-20T08:31:14.645Z,0.60
2022-12-20T08:34:01.089Z,2.75
2022-12-20T08:36:47.129Z,0.82
2022-12-20T08:39:33.517Z,1.95
2022-12-20T08:42:23.737Z,1.50
2022-12-20T08:45:12.448Z,0.80
2022-12-20T08:47:58.905Z,0.43
2022-12-20T08:50:46.093Z,2.63
2022-12-20T08:53:33.426Z,0.95
2022-12-20T08:56:22.489Z,3.80
2022-12-20T08:59:09.150Z,0.95
2022-12-20T09:01:58.200Z,2.75
2022-12-20T09:04:44.855Z,1.65
2022-12-20T09:07:33.911Z,2.15
2022-12-20T09:10:20.411Z,7.68
2022-12-20T09:13:06.878Z,3.97
2022-12-20T09:15:53.697Z,2.88
2022-12-20T09:18:40.379Z,6.00
2022-12-20T09:21:29.438Z,7.40
2022-12-20T09:24:19.050Z,6.90
2022-12-20T09:27:15.056Z,4.93
2022-12-20T09:30:26.490Z,3.65
2022-12-20T09:33:12.574Z,3.10
2022-12-20T09:36:00.089Z,4.72
2022-12-20T09:38:53.271Z,3.05
2022-12-20T09:41:44.207Z,4.70
2022-12-20T09:44:41.104Z,6.18
2022-12-20T09:47:34.098Z,7.43
2022-12-20T09:50:28.040Z,2.75
2022-12-20T09:53:32.875Z,4.95
2022-12-20T09:56:59.262Z,5.53
2022-12-20T09:59:49.536Z,8.57
2022-12-20T10:03:00.612Z,4.43
2022-12-20T10:06:26.813Z,7.65
2022-12-20T10:10:02.838Z,7.07
2022-12-20T10:12:49.862Z,3.20
2022-12-20T10:15:47.338Z,8.48
2022-12-20T10:19:07.033Z,15.93
2022-12-20T10:22:03.716Z,7.93
2022-12-20T10:25:15.768Z,6.32
2022-12-20T10:28:10.530Z,8.40
2022-12-20T10:31:05.776Z,8.27
2022-12-20T10:33:52.447Z,7.18
2022-12-20T10:36:38.715Z,5.85
2022-12-20T10:39:47.164Z,11.57
2022-12-20T10:42:41.264Z,6.38
2022-12-20T10:45:36.464Z,11.07
2022-12-20T10:48:35.565Z,8.73
2022-12-20T10:51:23.351Z,11.80
2022-12-20T10:54:29.067Z,12.60
2022-12-20T10:57:27.240Z,8.68
2022-12-20T11:00:29.883Z,8.95
2022-12-20T11:03:24.884Z,6.30
2022-12-20T11:06:20.237Z,9.57
2022-12-20T11:09:23.499Z,9.43
2022-12-20T11:12:16.867Z,10.45
2022-12-20T11:15:21.557Z,6.82
2022-12-20T11:18:26.984Z,11.13
2022-12-20T11:21:32.130Z,11.07
2022-12-20T11:24:59.360Z,9.68
2022-12-20T11:28:21.790Z,7.88
2022-12-20T11:31:08.731Z,11.35
2022-12-20T11:34:34.826Z,13.05
2022-12-20T11:37:27.194Z,12.55
2022-12-20T11:40:31.597Z,10.32
2022-12-20T11:43:23.605Z,13.25
2022-12-20T11:47:10.574Z,10.80
2022-12-20T11:53:21.170Z,16.35
2022-12-20T11:56:16.665Z,11.93
2022-12-20T12:01:14.201Z,9.68
2022-12-20T12:17:10.089Z,9.95
2022-12-20T12:28:34.348Z,14.95
2022-12-20T12:31:35.450Z,10.80
2022-12-20T12:34:47.734Z,14.88
2022-12-20T12:37:44.949Z,12.35
2022-12-20T12:40:50.483Z,10.82
2022-12-20T12:43:54.811Z,14.15
2022-12-20T12:46:41.217Z,10.73
2022-12-20T12:49:30.199Z,10.02
2022-12-20T12:52:43.392Z,10.05
2022-12-20T12:55:45.510Z,19.60
2022-12-20T12:58:32.733Z,9.18
2022-12-20T13:01:57.689Z,19.42
2022-12-20T13:04:52.407Z,10.60
2022-12-20T13:07:43.515Z,12.32
2022-12-20T13:10:31.432Z,20.70
2022-12-20T13:13:22.974Z,10.40
2022-12-20T13:16:12.484Z,34.63
2022-12-20T13:19:10.935Z,12.77
2022-12-20T13:21:57.849Z,12.70
2022-12-20T13:24:48.648Z,16.63
2022-12-20T13:27:42.662Z,13.73
2022-12-20T13:30:30.614Z,13.65
2022-12-20T13:33:21.499Z,15.07
2022-12-20T13:36:10.446Z,18.67
2022-12-20T13:39:20.856Z,18.40
2022-12-20T13:42:17.027Z,10.68
2022-12-20T13:45:05.404Z,14.05
2022-12-20T13:47:55.951Z,12.02
2022-12-20T13:50:50.803Z,15.23
2022-12-20T13:53:51.622Z,14.95
2022-12-20T13:56:38.129Z,13.80
2022-12-20T13:59:32.481Z,20.98
2022-12-20T14:02:25.301Z,12.05
2022-12-20T14:05:28.566Z,19.10
2022-12-20T14:08:21.738Z,13.88
2022-12-20T14:11:22.729Z,16.45
2022-12-20T14:14:13.973Z,13.63
2022-12-20T14:17:27.009Z,15.15
2022-12-20T14:20:18.394Z,15.10
2022-12-20T14:23:12.016Z,20.05
2022-12-20T14:26:02.279Z,18.23
2022-12-20T14:28:54.718Z,12.82
2022-12-20T14:31:44.269Z,17.92
2022-12-20T14:34:38.106Z,15.60
2022-12-20T14:37:32.147Z,11.38
2022-12-20T14:40:20.515Z,13.88
2022-12-20T14:43:16.082Z,17.70
2022-12-20T14:46:30.639Z,19.08
2022-12-20T14:49:21.173Z,18.30
2022-12-20T14:52:26.591Z,10.98
2022-12-20T14:55:19.751Z,17.45
2022-12-20T14:58:23.319Z,22.45
2022-12-20T15:01:15.719Z,17.77
2022-12-20T15:04:01.962Z,13.63
2022-12-20T15:06:48.448Z,14.95
2022-12-20T15:09:34.778Z,13.65
2022-12-20T15:12:20.661Z,16.67
2022-12-20T15:15:28.184Z,12.52
2022-12-20T15:18:17.569Z,13.50
2022-12-20T15:21:14.006Z,24.90
2022-12-20T15:24:02.836Z,18.67
2022-12-20T15:26:49.460Z,23.60
2022-12-20T15:29:35.804Z,20.83
2022-12-20T15:32:29.672Z,21.77
2022-12-20T15:35:16.430Z,12.68
2022-12-20T15:38:02.685Z,16.52
2022-12-20T15:40:52.681Z,12.32
2022-12-20T15:43:39.574Z,17.60
2022-12-20T15:46:26.374Z,13.48
2022-12-20T15:49:22.482Z,13.35
2022-12-20T15:52:16.024Z,15.52
2022-12-20T15:55:02.072Z,14.98
2022-12-20T15:57:48.104Z,23.65
2022-12-20T16:00:34.074Z,17.70
2022-12-20T16:03:26.702Z,22.70
2022-12-20T16:06:13.070Z,14.98
2022-12-20T16:08:59.934Z,16.95
2022-12-20T16:11:46.755Z,18.55
2022-12-20T16:14:36.010Z,13.20
2022-12-20T16:17:21.950Z,29.13
2022-12-20T16:20:09.535Z,22.17
2022-12-20T16:22:55.356Z,17.33
2022-12-20T16:25:41.853Z,24.45
2022-12-20T16:28:30.745Z,24.13
2022-12-20T16:31:27.936Z,19.88
2022-12-20T16:34:18.735Z,19.88
2022-12-20T16:37:08.221Z,14.00
2022-12-20T16:39:55.250Z,14.77
2022-12-20T16:42:41.711Z,21.40
2022-12-20T16:45:32.852Z,27.58
2022-12-20T16:48:19.090Z,19.35
2022-12-20T16:51:27.013Z,18.48
2022-12-20T16:54:19.786Z,21.40
2022-12-20T16:57:06.597Z,18.47
2022-12-20T16:59:52.454Z,18.58
2022-12-20T17:02:38.649Z,23.35
2022-12-20T17:05:28.803Z,14.40
2022-12-20T17:11:21.114Z,19.88
2022-12-20T17:14:12.363Z,22.77
2022-12-20T17:16:58.949Z,19.95
2022-12-20T17:19:45.689Z,27.08
2022-12-20T17:25:36.669Z,19.13
2022-12-20T17:28:23.431Z,19.80
2022-12-20T17:31:29.239Z,20.10
2022-12-20T17:34:30.363Z,13.38
2022-12-20T17:37:17.955Z,21.95
2022-12-20T17:40:04.588Z,25.08
2022-12-20T17:42:51.286Z,16.85
2022-12-20T17:45:41.312Z,16.80
2022-12-20T17:48:32.683Z,21.48
2022-12-20T17:51:23.349Z,25.67
2022-12-20T17:54:18.462Z,24.73
2022-12-20T17:57:04.971Z,30.63
2022-12-20T17:59:51.287Z,24.85
2022-12-20T18:02:37.787Z,18.92
2022-12-20T18:05:25.075Z,20.52
2022-12-20T18:08:11.541Z,17.50
2022-12-20T18:11:01.107Z,20.70
2022-12-20T18:13:49.465Z,15.82
2022-12-20T18:16:39.632Z,24.20
2022-12-20T18:19:25.734Z,22.50
2022-12-20T18:22:14.739Z,18.83
2022-12-20T18:25:06.009Z,22.20
2022-12-20T18:27:51.844Z,21.08
2022-12-20T18:30:39.209Z,21.38
2022-12-20T18:33:25.455Z,23.45
2022-12-20T18:36:19.695Z,17.10
2022-12-20T18:39:08.286Z,21.73
2022-12-20T18:41:54.272Z,18.60
2022-12-20T18:44:40.321Z,21.58
2022-12-20T18:47:26.296Z,18.88
2022-12-20T18:50:13.267Z,25.33
2022-12-20T18:53:01.789Z,21.48
2022-12-20T18:55:48.415Z,20.13
2022-12-20T18:58:36.443Z,33.00
2022-12-20T19:01:25.201Z,17.40
2022-12-20T19:04:12.156Z,25.58
2022-12-20T19:06:58.277Z,26.77
2022-12-20T19:09:46.056Z,22.80
2022-12-20T19:12:41.999Z,24.60
2022-12-20T19:15:31.610Z,24.90
2022-12-20T19:18:20.853Z,21.65
2022-12-20T19:21:15.520Z,17.65
2022-12-20T19:24:06.703Z,29.08
2022-12-20T19:26:52.851Z,23.27
2022-12-20T19:29:38.989Z,22.30
2022-12-20T19:32:25.454Z,25.58
2022-12-20T19:35:45.616Z,18.63
2022-12-20T19:38:19.655Z,20.67
2022-12-20T19:41:05.763Z,28.77
2022-12-20T19:43:53.126Z,22.70
2022-12-20T19:46:42.368Z,23.23
2022-12-20T19:49:28.531Z,23.58
2022-12-20T19:52:14.935Z,22.88
2022-12-20T19:55:01.061Z,29.52
2022-12-20T19:57:47.961Z,22.70
2022-12-20T20:00:37.319Z,26.95
2022-12-20T20:03:26.987Z,22.33
2022-12-20T20:06:14.013Z,30.42
2022-12-20T20:09:06.175Z,26.92
2022-12-20T20:11:54.934Z,30.02
2022-12-20T20:14:46.106Z,17.95
2022-12-20T20:17:41.095Z,19.77
2022-12-20T20:20:51.717Z,23.05
2022-12-20T20:23:44.778Z,25.38
2022-12-20T20:26:34.912Z,26.60
2022-12-20T20:29:21.026Z,27.98
2022-12-20T20:32:07.731Z,26.42
2022-12-20T20:34:53.684Z,30.40
2022-12-20T20:37:39.924Z,26.60
2022-12-20T20:40:26.295Z,28.88
2022-12-20T20:43:12.285Z,26.02
2022-12-20T20:45:58.208Z,28.33
2022-12-20T20:48:45.022Z,21.10
2022-12-20T20:51:32.109Z,31.73
2022-12-20T20:54:17.915Z,30.60
2022-12-20T20:57:03.996Z,24.73
2022-12-20T20:59:49.995Z,28.60
2022-12-20T21:02:36.197Z,25.73
2022-12-20T21:08:28.726Z,24.58
2022-12-20T21:11:14.676Z,25.08
2022-12-20T21:14:03.393Z,19.83
2022-12-20T21:16:49.339Z,30.55
2022-12-20T21:19:38.668Z,19.67
2022-12-20T21:22:24.541Z,19.45
2022-12-20T21:25:10.544Z,19.20
2022-12-20T21:27:57.196Z,19.60
2022-12-20T21:30:43.275Z,19.55
2022-12-20T21:33:29.681Z,26.92
2022-12-20T21:36:17.704Z,30.70
2022-12-20T21:39:04.206Z,26.83
2022-12-20T21:41:50.477Z,19.08
2022-12-20T21:44:36.618Z,28.05
2022-12-20T21:47:22.589Z,26.77
2022-12-20T21:50:14.117Z,25.20
2022-12-20T21:53:02.614Z,20.48
2022-12-20T21:55:48.469Z,17.90
2022-12-20T21:58:35.106Z,26.13
2022-12-20T22:01:24.286Z,19.77
2022-12-20T22:04:12.021Z,21.42
2022-12-20T22:06:57.895Z,26.65
2022-12-20T22:09:43.867Z,22.70
2022-12-20T22:12:30.626Z,25.02
2022-12-20T22:15:19.585Z,26.13
2022-12-20T22:18:07.200Z,29.38
2022-12-20T22:20:53.527Z,30.48
2022-12-20T22:23:40.386Z,20.55
2022-12-20T22:26:29.445Z,27.40
2022-12-20T22:29:15.955Z,24.52
2022-12-20T22:32:02.312Z,27.52
2022-12-20T22:34:48.696Z,19.90
2022-12-20T22:37:35.052Z,16.77
2022-12-20T22:40:20.934Z,19.17
2022-12-20T22:43:06.895Z,18.83
2022-12-20T22:45:59.889Z,27.42
2022-12-20T22:48:47.031Z,24.00
2022-12-20T22:51:33.813Z,22.65
2022-12-20T22:54:19.918Z,22.35
2022-12-20T22:57:05.963Z,25.00
2022-12-20T22:59:52.022Z,22.95
2022-12-20T23:02:38.389Z,18.42
2022-12-20T23:05:25.062Z,19.25
2022-12-20T23:08:10.912Z,23.67
2022-12-20T23:11:16.242Z,22.17
2022-12-20T23:14:22.252Z,27.02
2022-12-20T23:17:09.634Z,18.40
2022-12-20T23:20:14.610Z,23.02
2022-12-20T23:23:00.531Z,19.38
2022-12-20T23:25:46.609Z,20.27
2022-12-20T23:28:33.634Z,18.98
2022-12-20T23:31:19.604Z,15.48
2022-12-20T23:34:06.440Z,21.83
2022-12-20T23:36:52.434Z,34.22
2022-12-20T23:39:38.424Z,20.60
2022-12-20T23:42:24.422Z,19.17
2022-12-20T23:45:14.046Z,25.65
2022-12-20T23:48:00.119Z,23.85
2022-12-20T23:50:55.939Z,24.05
2022-12-20T23:53:42.180Z,19.55
2022-12-20T23:56:28.158Z,20.77
2022-12-20T23:59:14.722Z,25.10
